Latest Observation

42 Stations

15 Minute Data | America/Los_Angeles
as of 5/9/26 11:55 PM PDT
Station Date Time Temp (°F) RH (%) Dew Pt (°F) Wind Spd (mph) Wind Dir (°) Wind Gust (mph) Latest Rain (In) Daily Rain (In) Daily Min Temp (°F) Daily Max Temp (°F) Daily Max Wind (mph)
Elk Mt. Farm 5/9/26 2345 52.8   0.2 - - - - - - - 44.9   2.7 85.5   3.0 -
Upper Lake 5/9/26 2345 53.6   0.1 91   2 51.0   0.4 0.1 NW | 322 0.9   1.2 0.00 0.00 44.8   2.6 87.2   4.8 16.1   1.8
Scotts Valley 5/9/26 2345 49.0   1.4 93   2 47.0   1.9 0.0 ESE | 106 0.7   0.2 0.00 0.00 40.8   4.2 87.8   4.3 13.3   0.8
Scotts Valley-South (Bella Vista) 5/9/26 2345 52.5   0.0 77   1 45.7   0.5 0.3 SW | 229 1.3   0.6 0.00 0.00 45.4   3.7 87.1   4.4 15.9   0.0
Kelseyville 5/9/26 2345 55.1   1.6 71   2 45.8   0.7 1.1 S | 176 2.2   0.2 0.00 0.00 45.0   3.4 88.2   4.2 15.3   2.6
Kelseyville Remote 5/9/26 2345 54.3   1.2 66   4 43.4   0.6 - - - 0.00 0.00 45.7   3.7 87.7   4.1 -
Kelseyville (Clark Drive) 5/9/26 2345 54.5   0.8 - - - - - 0.00 0.00 44.7   3.7 88.2   3.3 -
Kelsey Bench (Oaklea) 5/9/26 2345 58.4   2.0 56   8 42.7   1.7 0.0 N | 0 0.0   0.2 0.00 0.00 48.1   3.2 85.1   2.8 14.8   0.1
Smith Lane (Kelseyville-South) 5/9/26 2345 54.8   0.1 68   3 44.4   1.0 0.0 W | 268 1.5   3.4 0.00 0.00 45.2   4.6 86.7   3.5 14.4   0.6
Bell Hill-West 5/9/26 2345 53.4   0.7 86   1 49.4   0.3 2.5 S | 185 3.4   0.0 0.00 0.00 46.2   4.6 86.2   4.6 14.2   1.7
High Valley Ridgeline (Brassfield) 5/9/26 2345 64.8   3.7 54   4 47.7   1.7 8.4 W | 268 11.1   2.3 0.00 0.00 60.6   4.3 82.5   3.2 20.0   3.6
Wight Way (Adobe Creek) 5/9/26 2300 51.6   0.2 79   0 45.4   0.4 1.7 SE | 127 2.7   0.3 0.00 0.00 44.3   4.8 86.7   3.5 15.1   0.9
Ridgeline Top (Brassfield) 5/9/26 2345 64.0   4.5 - - - - - - - 60.5   4.7 84.6   4.4 -
Ridgeline Low (Brassfield) 5/9/26 2345 65.7   4.2 - - - - - - - 55.1   2.3 83.3   3.5 -
Long Valley (Shannon) 5/9/26 2345 53.8   1.3 91   1 51.3   1.1 0.3 SSE | 148 1.5   0.0 0.00 0.00 46.6   3.8 87.2   2.8 15.9   1.0
High Valley Winery 5/9/26 2345 53.8   0.6 82   1 48.4   0.8 1.1 WNW | 300 2.4   1.8 0.00 0.00 44.5   2.9 83.8   2.8 18.9   2.7
Round Mtn Rd. 5/9/26 2130 66.8   2.7 - - - - - - - 49.7   3.2 85.3   2.6 -
Circle O 5/9/26 2345 55.5   1.1 - - - - - - - 49.0   4.6 85.4   3.4 -
Robertsbridge Vineyards 5/9/26 2345 51.6   0.9 77   2 44.6   0.2 - - - - - 45.8   5.6 87.8   3.0 -
Urgency Vineyard 5/9/26 2345 63.1   0.9 45   6 41.5   2.6 4.2 SW | 217 6.9   1.2 0.00 0.00 44.8   3.1 86.8   3.7 13.2   0.2
Red Hills (Beckstoffer) 5/9/26 2345 67.4   3.7 39   10 41.5   2.6 - - - 0.00 0.00 41.9   5.6 86.0   2.5 -
Winters (Shannon) 5/9/26 2345 67.8   4.3 36   10 40.0   2.4 3.1 W | 280 8.1   0.9 0.00 0.00 42.1   7.1 83.6   3.4 17.3   3.2
Secret Pond (Shannon) 5/9/26 2345 65.4   2.2 43   6 42.4   1.2 3.0 NNW | 329 5.0   1.2 0.00 0.00 47.0   4.8 84.0   3.1 16.4   3.0
Rolling Knolls (Shannon) 5/9/26 2345 54.1   0.1 69   2 44.3   0.9 1.7 WSW | 250 3.2   0.7 0.00 0.00 46.0   5.1 86.8   3.8 15.3   2.9
Lower Lake 5/9/26 2345 60.6   1.1 56   3 44.7   0.4 2.8 WSW | 240 3.9   0.4 0.00 0.00 50.8   4.5 86.5   4.1 20.9   2.7
Adamson Ranch 5/9/26 2345 53.0   0.6 90   1 50.1   0.3 0.1 SW | 221 1.3   0.9 0.00 0.00 46.5   5.8 88.5   1.8 10.1   2.6
Middletown (Diamond D) 5/9/26 2345 59.7   0.7 81   0 53.8   0.6 2.1 E | 97 4.5   1.1 0.00 0.00 49.2   5.2 85.9   1.5 17.7   3.0
Middletown-West (Domaine Helena) 5/9/26 2345 54.6   1.5 87   3 50.7   0.5 1.7 WSW | 241 3.1   0.2 0.00 0.00 45.0   5.6 84.1   2.0 18.5   0.0
Middletown-South 5/9/26 2345 55.9   1.0 88   3 52.3   0.2 2.0 SW | 221 3.2   0.4 0.00 0.00 49.1   4.5 83.4   0.3 19.6   2.2
Jim Davis (Langtry) 5/9/26 2345 62.0   0.8 66   11 50.7   3.3 1.0 N | 6 2.2   0.9 0.00 0.00 53.2   3.7 87.0   4.6 15.8   3.2
Napa Valley Basin 5/9/26 2345 54.4   0.8 94   0 52.8   0.7 0.8 SW | 229 1.8   0.4 0.00 0.00 47.1   1.0 88.0   4.0 15.6   0.7
Lower Bohn 5/9/26 2345 51.7   0.4 96   2 50.5   0.3 0.4 SE | 138 1.6   0.9 0.00 0.00 44.5   1.6 89.0   5.7 11.8   0.1
Upper Bohn-North 5/9/26 2345 60.0   2.0 88   10 56.6   5.4 0.9 SSE | 151 2.3   0.7 0.00 0.00 53.0   4.4 89.5   5.4 10.8   0.2
Snell Peak Blk#9 5/9/26 2345 64.0   3.2 74   7 55.6   0.8 0.3 WSW | 247 1.7   1.0 0.00 0.00 55.7   4.8 86.5   2.8 11.5   0.8
Coyote Lake West 5/9/26 2345 59.1   7.2 87   33 55.3   5.9 0.6 WSW | 251 1.7   1.8 0.00 0.00 54.0   2.8 86.5   3.9 12.5   0.4
Coyote Lake Northeast 5/9/26 2345 61.6   0.2 83   10 56.4   3.2 - - - - - 53.2   2.7 87.3   3.9 -
Coyote Lake East 5/9/26 2345 57.1   1.5 93   0 55.2   1.5 - - - - - 49.2   2.1 87.7   4.3 -
Morgan Valley 5/9/26 2345 66.8   2.8 54   6 49.6   0.4 1.5 NNW | 341 6.0   6.2 0.00 0.00 60.7   4.2 84.6   6.5 19.9   3.0
Mine Pit North 5/9/26 2345 64.9   4.0 63   1 52.0   3.4 0.0 N | 0 0.0   0.0 - - 56.6   3.9 89.2   7.3 13.4   5.6
Mine Pit South 5/9/26 2345 67.7   3.4 54   7 50.6   0.1 1.5 SE | 143 3.4   3.7 0.00 0.00 58.6   3.5 89.7   6.5 20.9   4.1
Cow Mountain 5/9/26 2345 65.4   3.0 - - 10.5 WNW | 284 16.7   0.2 0.00 0.00 63.9   10.1 73.0   5.3 26.3   2.0
Ukiah-SE (Ruddick) 5/9/26 2345 56.8   4.0 74   4 48.8   2.6 4.3 NNW | 341 5.8   1.9 0.00 0.00 45.8   3.6 85.3   4.7 20.6   3.5
Max     67.8 96 56.6 10.5 - 16.7 0.00 0.00 63.9 89.7 26.3
Avg     58.4 73 48.6 1.9 - 3.5 0.00 - - - -
Min     49.0 36 40.0 0.0 - 0.0 0.00 0.00 40.8 73.0 10.1